Arauca, Colombia

8:35 AM COT on July 04, 2015 (GMT -0500)
Santiago Perez | | Change Station
CLOSE
Current Station
Airport
Location: Arauca,
Elevation: 420 ft
Nearby Weather Stations

Elev 420 ft 7.07 °N, 70.74 °W | Updated 35 minutes ago

Scattered Clouds
Scattered Clouds
79 °F
Feels Like 79 °F
N
2
Wind Variable Wind from Variable

Today
High -- | Low -- °F
--% Chance of Precip.
Yesterday
High -- | Low -- °F
Precip. -- in
5:31 AM 6:02 PM
Waning Gibbous, 92% visible
Pressure 29.95 in
Visibility 6.2 miles
Clouds Few 2000 ft
Scattered Clouds 10000 ft
Dew Point 77 °F
Humidity 94%
Rainfall 0.00 in
Snow Depth Not available.
UV 4 out of 12
Pollen Not available.
Air Quality Not available.
Flu Activity Not available.
METAR SKUC 041300Z VRB02KT 9999 FEW020 SCT100 26/25 A2995

More Conditions Fewer Conditions

Pressure 29.95 in
Visibility 6.2 miles
Clouds Few 2000 ft
Scattered Clouds 10000 ft
Dew Point 77 °F
Humidity 94%
Rainfall 0.00 in
Snow Depth Not available.
UV 4 out of 12
Pollen Not available.
Air Quality Not available.
Flu Activity Not available.
METAR SKUC 041300Z VRB02KT 9999 FEW020 SCT100 26/25 A2995

More Conditions Fewer Conditions

10-Day Weather Forecast

×

Almanac

Astronomy

Jul. 04, 2015 Rise Set
Actual Time
Civil Twilight
Nautical Twilight
Astronomical Twilight
Moon
Length of Visible Light
Length of Day
Tomorrow will be .
, % of the Moon is Illuminated

Today's Extremes

Country Highs Country Lows

Community

WunderPhotos

Upload Photos

1,834,964 photos uploaded!

WunderBlogs® & News

Nearby

Air Quality

  Air Quality AQ Index Pollutant
Not available.

Snow Depth

Station Depth Elevation

Earthquake Activity

City Distance Mag. Time & Date
Minimum magnitude displayed is 2.5.

Coastal Water Temperatures

Place Temperature

Stations

Nearby Weather Stations

Station Location Temp. Windchill Dew Point Humidity Wind Precip. Elev Updated Type